createdAt,value
2018-08-24T15:48:34.228Z,8.67
2018-08-24T15:51:03.134Z,8.10
2018-08-24T15:53:32.028Z,8.43
2018-08-24T15:56:01.144Z,8.00
2018-08-24T15:58:29.867Z,9.27
2018-08-24T16:00:58.705Z,8.17
2018-08-24T16:03:27.469Z,9.00
2018-08-24T16:05:56.715Z,7.50
2018-08-24T16:08:25.371Z,8.73
2018-08-24T16:10:54.392Z,8.70
2018-08-24T16:13:22.950Z,8.50
2018-08-24T16:15:51.812Z,7.87
2018-08-24T16:18:22.511Z,8.67
2018-08-24T16:20:51.999Z,8.93
2018-08-24T16:23:20.764Z,8.97
2018-08-24T16:25:49.875Z,8.83
2018-08-24T16:28:18.982Z,8.00
2018-08-24T16:30:47.819Z,8.90
2018-08-24T16:33:17.408Z,9.13
2018-08-24T16:35:46.375Z,8.43
2018-08-24T16:38:15.508Z,6.90
2018-08-24T16:40:44.496Z,6.73
2018-08-24T16:43:13.862Z,7.07
2018-08-24T16:45:42.450Z,7.07
2018-08-24T16:48:11.252Z,6.80
2018-08-24T16:50:40.902Z,6.43
2018-08-24T16:53:09.655Z,6.50
2018-08-24T16:55:38.600Z,5.60
2018-08-24T16:58:07.263Z,6.13
2018-08-24T17:00:35.980Z,5.80
2018-08-24T17:03:04.952Z,5.30
2018-08-24T17:05:33.661Z,5.67
2018-08-24T17:08:02.303Z,5.10
2018-08-24T17:10:31.443Z,5.87
2018-08-24T17:13:00.336Z,5.80
2018-08-24T17:15:29.225Z,5.80
2018-08-24T17:17:57.908Z,4.70
2018-08-24T17:20:26.657Z,4.90
2018-08-24T17:22:55.719Z,4.80
2018-08-24T17:25:24.361Z,4.90
2018-08-24T17:27:53.149Z,4.50
2018-08-24T17:30:22.152Z,4.50
2018-08-24T17:32:50.825Z,4.03
2018-08-24T17:35:19.510Z,4.30
2018-08-24T17:37:48.196Z,4.10
2018-08-24T17:40:16.712Z,4.23
2018-08-24T17:42:45.423Z,4.60
2018-08-24T17:45:14.153Z,4.53
2018-08-24T17:47:42.999Z,4.83
2018-08-24T17:50:12.444Z,4.07
2018-08-24T17:52:41.396Z,5.07
2018-08-24T17:55:10.240Z,4.93
2018-08-24T17:57:41.199Z,4.73
2018-08-24T18:00:10.265Z,4.20
2018-08-24T18:02:39.157Z,4.40
2018-08-24T18:05:08.145Z,4.87
2018-08-24T18:07:36.788Z,4.70
2018-08-24T18:10:05.637Z,5.00
2018-08-24T18:12:34.321Z,5.00
2018-08-24T18:15:03.497Z,4.60
2018-08-24T18:17:33.049Z,4.30
2018-08-24T18:20:02.675Z,4.20
2018-08-24T18:22:31.758Z,5.57
2018-08-24T18:25:01.241Z,4.27
2018-08-24T18:27:30.349Z,4.60
2018-08-24T18:29:59.710Z,4.57
2018-08-24T18:32:28.547Z,4.10
2018-08-24T18:34:57.543Z,4.53
2018-08-24T18:37:26.470Z,5.27
2018-08-24T18:39:55.740Z,4.23
2018-08-24T18:42:24.603Z,4.50
2018-08-24T18:44:53.201Z,4.50
2018-08-24T18:47:21.900Z,4.50
2018-08-24T18:49:50.756Z,4.53
2018-08-24T18:52:19.407Z,4.10
2018-08-24T18:54:47.942Z,4.70
2018-08-24T18:57:16.455Z,4.30
2018-08-24T18:59:45.481Z,4.77
2018-08-24T19:02:14.424Z,4.20
2018-08-24T19:04:43.140Z,5.07
2018-08-24T19:07:11.824Z,5.10
2018-08-24T19:09:41.503Z,5.33
2018-08-24T19:12:15.340Z,6.43
2018-08-24T19:14:44.188Z,6.10
2018-08-24T19:21:31.762Z,6.03
2018-08-24T19:24:00.928Z,5.70
2018-08-24T19:26:30.172Z,5.83
2018-08-24T19:29:04.330Z,5.27
2018-08-24T19:31:33.562Z,4.87
2018-08-24T19:34:02.457Z,5.07
2018-08-24T19:36:31.421Z,5.30
2018-08-24T19:39:00.903Z,5.30
2018-08-24T19:41:35.144Z,5.20
2018-08-24T19:44:04.027Z,5.23
2018-08-24T19:46:32.918Z,5.73
2018-08-24T19:49:07.857Z,5.20
2018-08-24T19:51:36.525Z,4.80
2018-08-24T19:54:05.378Z,4.80
2018-08-24T19:56:34.243Z,4.53
2018-08-24T19:59:06.411Z,5.00
2018-08-24T20:01:36.057Z,4.80
2018-08-24T20:04:06.065Z,6.00
2018-08-24T20:06:40.976Z,5.93
2018-08-24T20:09:16.749Z,4.80
2018-08-24T20:11:53.296Z,5.70
2018-08-24T20:14:27.272Z,5.73
2018-08-24T20:17:01.455Z,5.10
2018-08-24T20:19:30.992Z,5.93
2018-08-24T20:21:59.832Z,5.60
2018-08-24T20:24:29.162Z,5.40
2018-08-24T20:26:57.888Z,5.70
2018-08-24T20:29:26.745Z,5.03
2018-08-24T20:31:56.460Z,5.13
2018-08-24T20:34:25.609Z,5.40
2018-08-24T20:36:54.793Z,4.10
2018-08-24T20:39:23.890Z,4.90
2018-08-24T20:41:52.872Z,4.80
2018-08-24T20:44:22.083Z,5.43
2018-08-24T20:46:50.886Z,5.17
2018-08-24T20:49:22.744Z,4.60
2018-08-24T20:51:52.435Z,4.53
2018-08-24T20:54:21.683Z,4.13
2018-08-24T20:56:51.639Z,5.17
2018-08-24T20:59:20.813Z,5.07
2018-08-24T21:01:52.240Z,5.00
2018-08-24T21:04:23.338Z,4.43
2018-08-24T21:06:53.577Z,4.50
2018-08-24T21:09:26.327Z,4.40
2018-08-24T21:11:55.764Z,4.57
2018-08-24T21:14:25.408Z,4.70
2018-08-24T21:16:56.127Z,5.63
2018-08-24T21:22:07.985Z,5.30
2018-08-24T21:24:40.213Z,4.20
2018-08-24T21:27:12.696Z,5.10
2018-08-24T21:29:44.413Z,5.37
2018-08-24T21:32:13.201Z,4.80
2018-08-24T21:34:43.711Z,5.00
2018-08-24T21:37:13.739Z,4.50
2018-08-24T21:39:43.876Z,4.30
2018-08-24T21:42:16.514Z,3.80
2018-08-24T21:44:46.647Z,3.63
2018-08-24T21:47:15.601Z,3.67
2018-08-24T21:49:46.204Z,3.40
2018-08-24T21:52:18.605Z,3.30
2018-08-24T21:54:49.470Z,3.20
2018-08-24T21:57:19.332Z,3.33
2018-08-24T21:59:49.901Z,3.37
2018-08-24T22:02:19.970Z,3.90
2018-08-24T22:04:50.889Z,3.03
2018-08-24T22:07:20.683Z,2.70
2018-08-24T22:09:50.644Z,3.23
2018-08-24T22:12:26.291Z,3.20
2018-08-24T22:14:55.003Z,3.10
2018-08-24T22:17:29.007Z,3.30
2018-08-24T22:20:04.124Z,2.73
2018-08-24T22:22:36.797Z,2.73
2018-08-24T22:25:07.556Z,2.90
2018-08-24T22:27:38.965Z,3.20
2018-08-24T22:30:09.516Z,3.10
2018-08-24T22:32:38.993Z,2.40
2018-08-24T22:35:09.617Z,3.03
2018-08-24T22:37:38.827Z,3.10
2018-08-24T22:40:08.139Z,2.63
2018-08-24T22:42:38.388Z,2.50
2018-08-24T22:45:11.117Z,2.63
2018-08-24T22:47:40.656Z,2.57
2018-08-24T22:50:10.141Z,3.30
2018-08-24T22:52:39.992Z,2.90
2018-08-24T22:55:10.892Z,2.80
2018-08-24T22:57:39.595Z,2.73
2018-08-24T23:00:11.141Z,3.00
2018-08-24T23:02:40.118Z,3.03
2018-08-24T23:05:08.484Z,3.40
2018-08-24T23:07:38.576Z,2.53
2018-08-24T23:10:10.745Z,3.13
2018-08-24T23:12:42.891Z,2.60
2018-08-24T23:15:11.511Z,2.80
2018-08-24T23:17:42.045Z,3.10
2018-08-24T23:20:10.904Z,3.30
2018-08-24T23:22:40.127Z,3.03
2018-08-24T23:25:08.704Z,3.27
2018-08-24T23:27:39.227Z,3.40
2018-08-24T23:30:09.312Z,3.23
2018-08-24T23:32:39.080Z,3.70
2018-08-24T23:35:08.061Z,3.43
2018-08-24T23:37:37.119Z,3.53
2018-08-24T23:40:06.815Z,3.70
2018-08-24T23:42:35.782Z,4.90
2018-08-24T23:45:08.223Z,3.97
2018-08-24T23:47:43.516Z,3.60
2018-08-24T23:50:12.608Z,3.60
2018-08-24T23:52:41.359Z,4.77
2018-08-24T23:55:11.118Z,3.47
2018-08-24T23:57:39.962Z,3.63
